createdAt,value
2023-04-08T00:00:20.049Z,7.50
2023-04-08T00:02:47.742Z,8.90
2023-04-08T00:05:15.852Z,7.00
2023-04-08T00:07:43.468Z,7.00
2023-04-08T00:10:11.202Z,7.40
2023-04-08T00:12:38.742Z,5.20
2023-04-08T00:15:07.822Z,6.50
2023-04-08T00:17:35.619Z,6.80
2023-04-08T00:20:04.194Z,7.40
2023-04-08T00:22:31.766Z,6.90
2023-04-08T00:24:59.329Z,7.10
2023-04-08T00:27:26.952Z,7.50
2023-04-08T00:29:54.546Z,6.40
2023-04-08T00:32:22.093Z,6.50
2023-04-08T00:34:50.265Z,7.00
2023-04-08T00:37:17.864Z,7.10
2023-04-08T00:39:46.002Z,7.90
2023-04-08T00:42:13.596Z,6.50
2023-04-08T00:44:41.521Z,6.50
2023-04-08T00:47:12.901Z,7.30
2023-04-08T00:49:41.056Z,6.50
2023-04-08T00:52:08.735Z,6.40
2023-04-08T00:54:37.952Z,7.50
2023-04-08T00:57:06.327Z,7.40
2023-04-08T00:59:35.371Z,7.00
2023-04-08T01:02:12.111Z,6.00
2023-04-08T01:04:51.799Z,7.00
2023-04-08T01:07:24.643Z,6.70
2023-04-08T01:09:54.715Z,7.10
2023-04-08T01:12:26.962Z,8.30
2023-04-08T01:15:01.177Z,7.70
2023-04-08T01:17:30.336Z,7.00
2023-04-08T01:20:01.022Z,7.70
2023-04-08T01:22:40.794Z,7.10
2023-04-08T01:25:14.784Z,9.00
2023-04-08T01:27:43.342Z,8.70
2023-04-08T01:30:12.157Z,11.30
2023-04-08T01:32:41.065Z,10.10
2023-04-08T01:35:10.421Z,9.20
2023-04-08T01:37:39.791Z,11.10
2023-04-08T01:40:10.601Z,10.60
2023-04-08T01:42:39.054Z,12.30
2023-04-08T01:45:09.202Z,11.70
2023-04-08T01:47:38.292Z,11.30
2023-04-08T01:50:08.936Z,9.40
2023-04-08T01:52:39.309Z,10.80
2023-04-08T01:55:08.021Z,10.60
2023-04-08T01:57:37.207Z,11.70
2023-04-08T02:00:09.552Z,10.80
2023-04-08T02:02:52.144Z,12.60
2023-04-08T02:05:20.686Z,12.70
2023-04-08T02:07:48.960Z,12.70
2023-04-08T02:10:16.606Z,13.60
2023-04-08T02:12:45.065Z,13.20
2023-04-08T02:15:13.701Z,14.10
2023-04-08T02:17:46.469Z,12.20
2023-04-08T02:20:18.721Z,13.00
2023-04-08T02:22:50.228Z,12.10
2023-04-08T02:25:22.926Z,12.50
2023-04-08T02:27:52.174Z,12.00
2023-04-08T02:30:21.465Z,10.60
2023-04-08T02:32:50.005Z,11.90
2023-04-08T02:35:19.633Z,11.90
2023-04-08T02:37:47.680Z,11.40
2023-04-08T02:40:29.293Z,10.40
2023-04-08T02:42:58.319Z,10.40
2023-04-08T02:45:30.841Z,10.70
2023-04-08T02:48:00.011Z,10.70
2023-04-08T02:50:27.978Z,9.70
2023-04-08T02:52:55.693Z,12.00
2023-04-08T02:55:23.286Z,11.60
2023-04-08T02:57:50.820Z,11.10
2023-04-08T03:00:18.710Z,10.50
2023-04-08T03:02:46.468Z,10.40
2023-04-08T03:05:15.649Z,9.90
2023-04-08T03:07:43.241Z,10.60
2023-04-08T03:10:11.583Z,10.70
2023-04-08T03:12:39.236Z,12.90
2023-04-08T03:15:08.499Z,8.10
2023-04-08T03:17:36.155Z,11.80
2023-04-08T03:20:04.585Z,11.70
2023-04-08T03:22:32.831Z,10.10
2023-04-08T03:25:00.435Z,10.80
2023-04-08T03:27:28.189Z,10.70
2023-04-08T03:29:57.050Z,9.90
2023-04-08T03:32:24.954Z,9.20
2023-04-08T03:34:52.876Z,11.80
2023-04-08T03:37:20.511Z,9.50
2023-04-08T03:39:48.087Z,9.90
2023-04-08T03:42:16.039Z,9.40
2023-04-08T03:44:43.556Z,9.20
2023-04-08T03:47:11.108Z,10.50
2023-04-08T03:49:38.653Z,9.30
2023-04-08T03:52:06.535Z,10.80
2023-04-08T03:54:34.071Z,9.20
2023-04-08T03:57:01.720Z,12.10
2023-04-08T03:59:29.337Z,10.30
2023-04-08T04:01:56.874Z,10.40
2023-04-08T04:04:25.790Z,12.40
2023-04-08T04:06:53.371Z,9.30
2023-04-08T04:09:20.920Z,10.10
2023-04-08T04:11:48.524Z,9.50
2023-04-08T04:14:16.091Z,9.70
2023-04-08T04:16:43.674Z,10.10
2023-04-08T04:19:11.224Z,9.60
2023-04-08T04:21:38.830Z,10.90
2023-04-08T04:24:06.714Z,8.10
2023-04-08T04:26:34.252Z,9.60
2023-04-08T04:29:01.829Z,10.50
2023-04-08T04:31:30.202Z,9.80
2023-04-08T04:33:57.752Z,9.60
2023-04-08T04:36:25.852Z,9.70
2023-04-08T04:38:53.863Z,9.10
2023-04-08T04:41:21.676Z,9.90
2023-04-08T04:43:49.241Z,10.90
2023-04-08T04:46:16.842Z,11.20
2023-04-08T04:48:44.395Z,12.00
2023-04-08T04:51:11.937Z,11.80
2023-04-08T04:53:39.494Z,11.10
2023-04-08T04:56:07.530Z,9.90
2023-04-08T04:58:35.120Z,10.80
2023-04-08T05:01:02.753Z,12.30
2023-04-08T05:03:30.987Z,10.00
2023-04-08T05:05:58.578Z,9.80
2023-04-08T05:08:27.825Z,11.40
2023-04-08T05:10:55.860Z,10.30
2023-04-08T05:13:23.392Z,10.20
2023-04-08T05:15:50.990Z,10.80
2023-04-08T05:18:19.057Z,11.10
2023-04-08T05:20:46.745Z,10.10
2023-04-08T05:23:14.312Z,10.30
2023-04-08T05:25:41.885Z,8.70
2023-04-08T05:28:09.411Z,9.40
2023-04-08T05:30:37.005Z,10.50
2023-04-08T05:33:04.687Z,11.40
2023-04-08T05:35:32.551Z,9.60
2023-04-08T05:38:00.167Z,11.40
2023-04-08T05:40:27.763Z,13.00
2023-04-08T05:42:55.412Z,11.60
2023-04-08T05:45:22.964Z,11.60
2023-04-08T05:47:50.831Z,10.70
2023-04-08T05:50:18.583Z,9.00
2023-04-08T05:52:46.671Z,10.10
2023-04-08T05:55:14.880Z,10.10
2023-04-08T05:57:42.442Z,8.90
2023-04-08T06:00:11.466Z,10.40
2023-04-08T06:02:39.311Z,10.60
2023-04-08T06:05:08.796Z,10.90
2023-04-08T06:07:36.330Z,8.50
2023-04-08T06:10:05.274Z,9.20
2023-04-08T06:12:36.471Z,9.60
2023-04-08T06:15:05.295Z,8.80
2023-04-08T06:17:33.103Z,9.70
2023-04-08T06:20:02.944Z,12.30
2023-04-08T06:22:30.607Z,10.10
2023-04-08T06:24:58.230Z,10.20
2023-04-08T06:27:25.855Z,10.50
2023-04-08T06:29:54.618Z,9.60
2023-04-08T06:32:22.352Z,9.40
2023-04-08T06:34:50.110Z,9.10
2023-04-08T06:37:17.647Z,10.40
2023-04-08T06:39:45.250Z,9.60
2023-04-08T06:42:12.806Z,11.40
2023-04-08T06:44:50.941Z,8.10
2023-04-08T06:47:18.544Z,11.40
2023-04-08T06:49:46.770Z,11.40
2023-04-08T06:52:15.229Z,11.00
2023-04-08T06:54:43.542Z,10.80
2023-04-08T06:57:11.119Z,12.40
2023-04-08T06:59:38.712Z,10.80
2023-04-08T07:02:06.766Z,11.00
2023-04-08T07:04:34.432Z,9.60
2023-04-08T07:07:01.945Z,9.00
2023-04-08T07:09:30.952Z,9.80
2023-04-08T07:11:59.200Z,9.90
2023-04-08T07:14:26.787Z,11.90
2023-04-08T07:16:54.426Z,10.80
2023-04-08T07:19:23.593Z,11.60
2023-04-08T07:21:52.012Z,11.10
2023-04-08T07:24:19.739Z,8.90
2023-04-08T07:26:47.392Z,11.20
2023-04-08T07:29:15.201Z,10.90
2023-04-08T07:31:44.049Z,11.50
2023-04-08T07:34:11.625Z,10.80
2023-04-08T07:36:40.105Z,8.90
2023-04-08T07:39:07.608Z,10.20
2023-04-08T07:41:35.268Z,9.50
2023-04-08T07:44:02.852Z,9.00
2023-04-08T07:46:30.987Z,9.60
2023-04-08T07:48:58.574Z,10.80
2023-04-08T07:51:26.952Z,9.50
2023-04-08T07:53:54.521Z,7.50
2023-04-08T07:56:22.151Z,8.80
2023-04-08T07:58:52.005Z,7.20
2023-04-08T08:01:22.904Z,7.30
2023-04-08T08:03:52.195Z,8.10
2023-04-08T08:06:21.377Z,8.30
2023-04-08T08:08:49.010Z,8.50
2023-04-08T08:11:16.650Z,8.80
2023-04-08T08:13:44.340Z,7.40
2023-04-08T08:16:12.368Z,7.70
2023-04-08T08:18:40.944Z,8.40
2023-04-08T08:21:08.937Z,7.50
2023-04-08T08:23:37.110Z,7.60
2023-04-08T08:26:06.964Z,10.10
2023-04-08T08:28:34.508Z,8.80
2023-04-08T08:31:02.844Z,11.00
2023-04-08T08:33:30.516Z,8.70
2023-04-08T08:35:58.559Z,8.00
2023-04-08T08:38:26.877Z,7.70
2023-04-08T08:40:55.804Z,7.80
2023-04-08T08:43:23.893Z,8.40
2023-04-08T08:45:51.574Z,7.40
2023-04-08T08:48:19.195Z,8.10
2023-04-08T08:50:46.898Z,8.00
2023-04-08T08:53:14.724Z,8.10
2023-04-08T08:58:12.998Z,8.20
2023-04-08T09:00:44.182Z,7.40
2023-04-08T09:03:16.681Z,7.80
2023-04-08T09:05:53.070Z,7.60
2023-04-08T09:08:28.790Z,7.40
2023-04-08T09:11:10.126Z,6.70
2023-04-08T09:13:38.139Z,7.10
2023-04-08T09:16:09.484Z,6.80
2023-04-08T09:18:38.728Z,7.40
2023-04-08T09:21:07.065Z,7.80
2023-04-08T09:23:39.865Z,6.30
2023-04-08T09:26:12.165Z,7.40
2023-04-08T09:28:41.566Z,7.80
2023-04-08T09:31:23.278Z,8.90
2023-04-08T09:33:52.894Z,7.30
2023-04-08T09:36:21.281Z,7.20
2023-04-08T09:38:49.029Z,7.70
2023-04-08T09:41:18.364Z,6.80
2023-04-08T09:43:49.806Z,8.10
2023-04-08T09:46:24.132Z,7.40
2023-04-08T09:48:58.713Z,8.00
2023-04-08T09:51:32.814Z,6.50
2023-04-08T09:54:06.416Z,7.90
2023-04-08T09:56:40.860Z,6.50
2023-04-08T09:59:16.817Z,6.10
2023-04-08T10:01:50.686Z,7.10
2023-04-08T10:04:22.945Z,7.90
2023-04-08T10:06:54.255Z,7.40
2023-04-08T10:09:23.155Z,6.70
2023-04-08T10:11:51.087Z,6.90
2023-04-08T10:14:20.993Z,6.70
2023-04-08T10:16:48.909Z,6.70
2023-04-08T10:19:39.802Z,8.40
2023-04-08T10:22:39.480Z,6.70
2023-04-08T10:25:33.993Z,7.50
2023-04-08T10:28:22.941Z,6.60
2023-04-08T10:30:52.406Z,6.60
2023-04-08T10:33:22.795Z,6.50
2023-04-08T10:35:54.369Z,7.30
2023-04-08T10:38:22.353Z,7.40
2023-04-08T10:40:50.739Z,6.50
2023-04-08T10:43:18.415Z,8.10
2023-04-08T10:45:50.351Z,7.10
2023-04-08T10:48:21.826Z,6.20
2023-04-08T10:50:57.129Z,6.30
2023-04-08T10:53:26.969Z,6.90
2023-04-08T10:55:54.790Z,7.30
2023-04-08T10:58:23.119Z,6.20
2023-04-08T11:00:50.667Z,6.90
2023-04-08T11:03:19.064Z,6.70
2023-04-08T11:05:48.815Z,7.70
2023-04-08T11:08:20.618Z,7.10
2023-04-08T11:10:49.129Z,7.30
2023-04-08T11:13:16.851Z,7.40
2023-04-08T11:15:44.462Z,7.60
2023-04-08T11:18:12.708Z,7.70
2023-04-08T11:20:40.306Z,7.20
2023-04-08T11:23:13.715Z,6.90
2023-04-08T11:25:42.346Z,8.20
2023-04-08T11:28:10.528Z,7.40
2023-04-08T11:30:39.676Z,7.40
2023-04-08T11:33:07.805Z,7.30
2023-04-08T11:35:39.820Z,7.60
2023-04-08T11:38:08.999Z,9.80
2023-04-08T11:40:37.090Z,7.30
2023-04-08T11:43:10.515Z,8.10
2023-04-08T11:45:40.175Z,7.70
2023-04-08T11:48:11.966Z,7.90
2023-04-08T11:50:41.157Z,8.50
2023-04-08T11:53:18.861Z,6.90
2023-04-08T11:55:47.771Z,8.30
2023-04-08T11:58:16.100Z,8.10
2023-04-08T12:00:45.032Z,7.00
2023-04-08T12:03:13.048Z,7.40
2023-04-08T12:05:41.851Z,8.80
2023-04-08T12:08:09.438Z,8.80
2023-04-08T12:10:37.318Z,9.10
2023-04-08T12:13:04.885Z,7.80
2023-04-08T12:15:32.512Z,8.90
2023-04-08T12:18:00.191Z,8.30
2023-04-08T12:20:27.958Z,8.00
2023-04-08T12:22:55.521Z,9.50
2023-04-08T12:25:23.199Z,8.00
2023-04-08T12:27:50.747Z,8.80
2023-04-08T12:30:18.461Z,7.60
2023-04-08T12:32:47.024Z,7.20
2023-04-08T12:35:14.698Z,6.00
2023-04-08T12:37:42.273Z,8.20
2023-04-08T12:40:10.864Z,7.70
2023-04-08T12:42:38.983Z,6.70
2023-04-08T12:45:08.461Z,7.70
2023-04-08T12:47:36.056Z,7.00
2023-04-08T12:50:06.019Z,6.80
2023-04-08T12:52:33.575Z,8.70
2023-04-08T12:55:01.360Z,8.70
2023-04-08T12:57:28.891Z,8.00
2023-04-08T12:59:56.404Z,8.80
2023-04-08T13:02:25.013Z,9.40
2023-04-08T13:04:54.539Z,8.30
2023-04-08T13:07:23.024Z,8.70
2023-04-08T13:09:50.577Z,7.60
2023-04-08T13:12:18.169Z,7.70
2023-04-08T13:14:46.467Z,8.30
2023-04-08T13:17:14.010Z,6.10
2023-04-08T13:19:41.852Z,6.70
2023-04-08T13:22:09.425Z,5.30
2023-04-08T13:24:37.146Z,6.10
2023-04-08T13:27:04.857Z,6.40
2023-04-08T13:29:32.363Z,6.90
2023-04-08T13:32:00.795Z,5.50
2023-04-08T13:34:28.419Z,5.50
2023-04-08T13:36:56.620Z,6.20
2023-04-08T13:39:24.236Z,6.30
2023-04-08T13:41:52.032Z,5.70
2023-04-08T13:44:19.632Z,6.50
2023-04-08T13:46:47.163Z,5.60
2023-04-08T13:49:15.515Z,5.50
2023-04-08T13:51:43.167Z,6.70
2023-04-08T13:54:10.779Z,6.20
2023-04-08T13:56:38.365Z,5.90
2023-04-08T13:59:06.580Z,5.80
2023-04-08T14:01:34.228Z,5.40
2023-04-08T14:04:02.078Z,5.60
2023-04-08T14:06:30.498Z,6.10
2023-04-08T14:08:58.105Z,5.40
2023-04-08T14:11:25.669Z,6.00
2023-04-08T14:13:53.169Z,5.90
2023-04-08T14:16:20.771Z,6.00
2023-04-08T14:18:48.553Z,5.80
2023-04-08T14:21:17.570Z,5.60
2023-04-08T14:23:46.075Z,6.60
2023-04-08T14:26:13.631Z,5.80
2023-04-08T14:28:41.138Z,5.40
2023-04-08T14:31:08.778Z,6.30
2023-04-08T14:33:36.598Z,5.60
2023-04-08T14:36:05.421Z,5.80
2023-04-08T14:38:32.951Z,5.40
2023-04-08T14:41:00.480Z,5.40
2023-04-08T14:43:28.053Z,5.30
2023-04-08T14:45:56.064Z,4.20
2023-04-08T14:48:25.247Z,5.30
2023-04-08T14:50:52.908Z,5.60
2023-04-08T14:53:20.512Z,5.70
2023-04-08T14:55:48.112Z,5.10
2023-04-08T14:58:15.902Z,5.70
2023-04-08T15:00:45.209Z,5.70
2023-04-08T15:03:13.169Z,5.10
2023-04-08T15:05:42.162Z,5.30
2023-04-08T15:08:10.267Z,6.00
2023-04-08T15:10:38.081Z,5.90
2023-04-08T15:13:05.652Z,5.40
2023-04-08T15:15:33.667Z,5.70
2023-04-08T15:18:01.463Z,5.40
2023-04-08T15:20:28.972Z,5.60
2023-04-08T15:22:56.523Z,5.30
2023-04-08T15:25:24.048Z,5.90
2023-04-08T15:27:51.706Z,5.90
2023-04-08T15:30:23.692Z,5.90
2023-04-08T15:32:51.581Z,5.90
2023-04-08T15:35:19.377Z,5.70
2023-04-08T15:37:46.922Z,6.30
2023-04-08T15:40:14.982Z,6.40
2023-04-08T15:42:42.528Z,5.90
2023-04-08T15:45:11.973Z,6.70
2023-04-08T15:47:39.590Z,6.80
2023-04-08T15:50:09.419Z,6.40
2023-04-08T15:52:36.942Z,5.80
2023-04-08T15:55:06.425Z,6.60
2023-04-08T15:57:35.710Z,6.90
2023-04-08T16:00:07.808Z,6.70
2023-04-08T16:02:40.322Z,5.90
2023-04-08T16:05:08.961Z,6.40
2023-04-08T16:07:36.726Z,6.30
2023-04-08T16:10:05.936Z,7.30
2023-04-08T16:12:33.653Z,7.50
2023-04-08T16:15:01.991Z,6.60
2023-04-08T16:17:30.045Z,6.60
2023-04-08T16:19:57.658Z,6.40
2023-04-08T16:22:25.737Z,7.70
2023-04-08T16:24:53.327Z,6.60
2023-04-08T16:27:20.887Z,6.40
2023-04-08T16:29:48.500Z,6.80
2023-04-08T16:32:16.044Z,6.60
2023-04-08T16:34:43.854Z,7.00
2023-04-08T16:37:13.204Z,7.40
2023-04-08T16:39:42.437Z,6.70
2023-04-08T16:42:10.261Z,7.20
2023-04-08T16:44:37.849Z,8.00
2023-04-08T16:47:05.756Z,7.50
2023-04-08T16:49:33.387Z,7.20
2023-04-08T16:52:00.942Z,7.10
2023-04-08T16:54:28.501Z,7.60
2023-04-08T16:56:56.380Z,8.10
2023-04-08T16:59:24.049Z,7.80
2023-04-08T17:01:51.684Z,8.00
2023-04-08T17:04:19.382Z,7.40
2023-04-08T17:06:48.444Z,6.00
2023-04-08T17:09:16.032Z,6.90
2023-04-08T17:11:43.639Z,7.50
2023-04-08T17:14:11.216Z,7.70
2023-04-08T17:16:38.787Z,9.20
2023-04-08T17:19:06.421Z,8.10
2023-04-08T17:21:34.019Z,8.60
2023-04-08T17:24:01.573Z,10.10
2023-04-08T17:26:29.252Z,9.70
2023-04-08T17:28:56.988Z,9.00
2023-04-08T17:31:24.722Z,9.10
2023-04-08T17:33:52.426Z,9.60
2023-04-08T17:36:20.312Z,9.10
2023-04-08T17:38:50.602Z,9.70
2023-04-08T17:41:25.096Z,8.70
2023-04-08T17:44:04.169Z,8.30
2023-04-08T17:46:32.827Z,8.40
2023-04-08T17:49:00.741Z,7.60
2023-04-08T17:51:29.499Z,8.30
2023-04-08T17:53:57.098Z,9.10
2023-04-08T17:56:26.465Z,10.00
2023-04-08T17:58:54.160Z,9.20
2023-04-08T18:01:22.284Z,9.50
2023-04-08T18:03:51.212Z,9.90
2023-04-08T18:06:19.546Z,9.60
2023-04-08T18:08:47.201Z,9.90
2023-04-08T18:11:15.236Z,9.90
2023-04-08T18:13:42.849Z,10.20
2023-04-08T18:16:16.773Z,9.70
2023-04-08T18:18:44.398Z,10.50
2023-04-08T18:21:12.240Z,10.20
2023-04-08T18:23:39.852Z,10.60
2023-04-08T18:26:07.534Z,10.00
2023-04-08T18:28:35.691Z,11.10
2023-04-08T18:31:03.333Z,9.20
2023-04-08T18:33:31.041Z,10.60
2023-04-08T18:36:06.748Z,11.00
2023-04-08T18:38:35.544Z,10.20
2023-04-08T18:41:03.550Z,10.80
2023-04-08T18:43:31.464Z,11.10
2023-04-08T18:45:59.228Z,11.70
2023-04-08T18:48:26.944Z,10.80
2023-04-08T18:50:54.593Z,11.40
2023-04-08T18:53:22.475Z,11.70
2023-04-08T18:55:50.518Z,12.10
2023-04-08T18:58:18.116Z,12.00
2023-04-08T19:00:45.744Z,13.50
2023-04-08T19:03:13.394Z,13.10
2023-04-08T19:05:41.674Z,12.60
2023-04-08T19:08:09.374Z,12.30
2023-04-08T19:10:36.913Z,12.70
2023-04-08T19:13:04.606Z,13.20
2023-04-08T19:15:32.284Z,14.30
2023-04-08T19:17:59.937Z,14.50
2023-04-08T19:20:27.840Z,14.40
2023-04-08T19:22:55.860Z,14.90
2023-04-08T19:25:23.528Z,15.20
2023-04-08T19:27:51.150Z,14.80
2023-04-08T19:30:18.925Z,14.50
2023-04-08T19:32:47.924Z,14.00
2023-04-08T19:35:15.650Z,13.90
2023-04-08T19:37:43.729Z,14.70
2023-04-08T19:40:11.928Z,14.20
2023-04-08T19:42:39.584Z,15.60
2023-04-08T19:45:10.185Z,16.70
2023-04-08T19:47:41.736Z,16.70
2023-04-08T19:50:11.513Z,16.10
2023-04-08T19:52:39.172Z,14.40
2023-04-08T19:55:09.472Z,16.10
2023-04-08T19:57:37.170Z,15.10
2023-04-08T20:00:06.452Z,16.10
2023-04-08T20:02:34.417Z,16.10
2023-04-08T20:05:02.426Z,14.80
2023-04-08T20:07:30.316Z,14.70
2023-04-08T20:09:57.927Z,14.20
2023-04-08T20:12:26.237Z,14.60
2023-04-08T20:14:53.804Z,14.60
2023-04-08T20:17:21.815Z,14.40
2023-04-08T20:19:49.432Z,14.40
2023-04-08T20:22:17.941Z,13.80
2023-04-08T20:24:47.069Z,15.00
2023-04-08T20:27:15.895Z,14.30
2023-04-08T20:29:43.501Z,13.70
2023-04-08T20:32:11.953Z,16.00
2023-04-08T20:34:40.844Z,15.90
2023-04-08T20:37:08.562Z,15.00
2023-04-08T20:39:36.169Z,15.40
2023-04-08T20:42:05.959Z,15.70
2023-04-08T20:44:33.512Z,15.50
2023-04-08T20:47:01.159Z,16.30
2023-04-08T20:49:28.745Z,14.70
2023-04-08T20:51:56.626Z,16.20
2023-04-08T20:54:25.314Z,14.20
2023-04-08T20:56:52.877Z,17.80
2023-04-08T20:59:22.760Z,15.60
2023-04-08T21:01:53.062Z,15.70
2023-04-08T21:04:23.605Z,16.30
2023-04-08T21:06:51.316Z,14.20
2023-04-08T21:09:18.969Z,16.00
2023-04-08T21:11:46.716Z,16.60
2023-04-08T21:14:14.398Z,16.50
2023-04-08T21:16:42.247Z,16.80
2023-04-08T21:19:09.945Z,16.30
2023-04-08T21:21:37.714Z,17.40
2023-04-08T21:24:10.054Z,17.60
2023-04-08T21:26:40.737Z,17.80
2023-04-08T21:29:08.579Z,17.80
2023-04-08T21:31:36.315Z,17.40
2023-04-08T21:34:05.385Z,18.00
2023-04-08T21:36:32.952Z,16.10
2023-04-08T21:39:00.697Z,18.40
2023-04-08T21:41:30.422Z,17.90
2023-04-08T21:43:58.618Z,18.30
2023-04-08T21:46:26.375Z,17.70
2023-04-08T21:48:54.217Z,17.10
2023-04-08T21:51:22.106Z,16.50
2023-04-08T21:53:51.206Z,17.70
2023-04-08T21:56:18.929Z,16.50
2023-04-08T21:58:46.614Z,15.90
2023-04-08T22:01:14.362Z,17.20
2023-04-08T22:03:42.737Z,17.20
2023-04-08T22:06:12.745Z,16.50
2023-04-08T22:08:44.315Z,18.80
2023-04-08T22:11:12.246Z,16.80
2023-04-08T22:13:39.832Z,15.40
2023-04-08T22:16:09.341Z,18.50
2023-04-08T22:18:36.961Z,20.30
2023-04-08T22:21:05.381Z,18.30
2023-04-08T22:23:33.069Z,17.50
2023-04-08T22:26:02.849Z,17.30
2023-04-08T22:28:31.847Z,17.50
2023-04-08T22:30:59.720Z,18.00
2023-04-08T22:33:27.500Z,17.50
2023-04-08T22:35:57.061Z,17.50
2023-04-08T22:38:24.778Z,16.10
2023-04-08T22:40:54.672Z,18.30
2023-04-08T22:43:22.376Z,16.90
2023-04-08T22:45:50.700Z,17.10
2023-04-08T22:48:18.372Z,15.90
2023-04-08T22:50:46.413Z,17.20
2023-04-08T22:53:14.018Z,18.40
2023-04-08T22:55:41.606Z,17.90
2023-04-08T22:58:09.225Z,17.90
2023-04-08T23:00:36.914Z,17.50
2023-04-08T23:03:05.127Z,18.50
2023-04-08T23:05:33.032Z,17.50
2023-04-08T23:08:00.868Z,18.50
2023-04-08T23:10:28.442Z,19.10
2023-04-08T23:12:56.048Z,17.60
2023-04-08T23:15:23.709Z,18.20
2023-04-08T23:17:51.432Z,17.30
2023-04-08T23:20:19.211Z,17.80
2023-04-08T23:22:46.845Z,17.30
2023-04-08T23:25:14.812Z,17.80
2023-04-08T23:27:42.437Z,17.20
2023-04-08T23:30:11.360Z,18.70
2023-04-08T23:32:39.306Z,16.30
2023-04-08T23:35:08.834Z,17.60
2023-04-08T23:37:36.461Z,16.10
2023-04-08T23:40:05.687Z,17.00
2023-04-08T23:42:33.349Z,17.80
2023-04-08T23:45:01.061Z,17.70
2023-04-08T23:47:30.508Z,18.00
2023-04-08T23:49:58.232Z,20.40
2023-04-08T23:52:25.914Z,20.90
2023-04-08T23:54:53.483Z,18.30
2023-04-08T23:57:21.098Z,18.10
2023-04-08T23:59:48.767Z,17.40
